tititudorancea.com
Station Historical Data
Daily Summary for January 5, 2018 Units:  Metric    English   Both
« Previous Day
Next Day »
Daily Weekly Monthly Yearly Custom
  High: Low: Average:
Temperature: -17.8 °C 10.9 °C 22.3 °C
Dew Point: -17.8 °C 5.1 °C 9.6 °C
Humidity: Humidity % 17 % 53 %
Wind Speed: 0 km/h 0 km/h 5.6 km/h
Wind Gust: 0 km/h - -
Wind:- - WSW
Pressure: 0 hPa 1009 hPa -
Precipitation: 0 mm    
Historical Graphs
 
 
Ararat weather Find more about Weather in Ararat, AU


 



 


Tabular Data for January 5, 2018
Time Temperature Dew Point Pressure Wind Wind Speed Wind Gust Humidity Rainfall Rate (Hourly)
-17.8 °C -17.8 °C 0 hPa Calm     Humidity % 0 mm
00:00 15.2 °C 11.2 °C 1015.1 hPa South 7.6 km/h 11.1 km/h 77 % 0 mm
00:05 15.1 °C 11.1 °C 1015.1 hPa North 8 km/h 9.7 km/h 77 % 0 mm
00:10 15.1 °C 11.2 °C 1015.1 hPa North 5.6 km/h 14.8 km/h 78 % 0 mm
00:12 15.1 °C 11.2 °C 1015.1 hPa North 6.8 km/h 9.3 km/h 78 % 0 mm
00:16 15 °C 11.2 °C 1015.1 hPa SSW 8.9 km/h 14.8 km/h 78 % 0 mm
00:17 15 °C 11.2 °C 1015.1 hPa South 6.4 km/h 11.1 km/h 78 % 0 mm
00:22 14.9 °C 11.1 °C 1014.8 hPa South 6.6 km/h 9.3 km/h 78 % 0 mm
00:26 14.8 °C 11.1 °C 1014.8 hPa South 6.8 km/h 11.3 km/h 78 % 0 mm
00:28 14.8 °C 11 °C 1014.8 hPa SSW 7.2 km/h 9.3 km/h 78 % 0 mm
00:33 14.7 °C 11.1 °C 1014.8 hPa SSW 10.8 km/h 13 km/h 79 % 0 mm
00:37 14.7 °C 11.1 °C 1014.8 hPa South 9.7 km/h 14.8 km/h 79 % 0 mm
00:41 14.6 °C 11 °C 1014.8 hPa North 8.9 km/h 14.8 km/h 79 % 0 mm
00:42 14.6 °C 11 °C 1014.8 hPa South 7.7 km/h 13 km/h 79 % 0 mm
00:44 14.6 °C 11 °C 1014.8 hPa South 6.9 km/h 13 km/h 79 % 0 mm
00:49 14.6 °C 10.9 °C 1014.8 hPa SSW 9.2 km/h 13 km/h 79 % 0 mm
00:54 14.6 °C 10.9 °C 1014.8 hPa North 8.2 km/h 13 km/h 79 % 0 mm
00:55 14.6 °C 10.9 °C 1014.4 hPa SSW 10.5 km/h 16.7 km/h 79 % 0 mm
01:00 14.5 °C 10.9 °C 1014.4 hPa North 10.8 km/h 13 km/h 79 % 0 mm
01:01 14.5 °C 10.9 °C 1014.4 hPa SSW 9.8 km/h 13 km/h 79 % 0 mm
01:06 14.4 °C 10.8 °C 1014.4 hPa SSW 9.2 km/h 12.9 km/h 79 % 0 mm
01:08 14.4 °C 11.1 °C 1014.4 hPa SSW 9.8 km/h 13 km/h 80 % 0 mm
01:12 14.4 °C 11 °C 1014.4 hPa SSW 8 km/h 11.1 km/h 80 % 0 mm
01:13 14.4 °C 11 °C 1014.1 hPa SSW 9.5 km/h 14.5 km/h 80 % 0 mm
01:18 14.3 °C 10.9 °C 1014.1 hPa SSW 8.9 km/h 13 km/h 80 % 0 mm
01:22 14.3 °C 10.9 °C 1014.1 hPa SSW 6.8 km/h 16.7 km/h 80 % 0 mm
01:25 14.2 °C 10.8 °C 1014.1 hPa SSW 7.1 km/h 14.8 km/h 80 % 0 mm
01:27 14.2 °C 10.8 °C 1014.1 hPa SSW 8 km/h 11.1 km/h 80 % 0 mm
01:32 14.1 °C 10.9 °C 1014.1 hPa SSW 5.5 km/h 9.3 km/h 81 % 0 mm
01:35 14.1 °C 10.9 °C 1014.1 hPa SSW 8.4 km/h 13 km/h 81 % 0 mm
01:36 14.1 °C 10.9 °C 1014.1 hPa SSW 6.6 km/h 9.3 km/h 81 % 0 mm
01:41 14 °C 10.8 °C 1014.1 hPa SSW 7.9 km/h 13 km/h 81 % 0 mm
01:42 14 °C 10.8 °C 1014.1 hPa North 10.5 km/h 13 km/h 81 % 0 mm
01:47 13.9 °C 10.9 °C 1014.1 hPa SSW 7.2 km/h 9.3 km/h 82 % 0 mm
01:49 13.9 °C 10.9 °C 1014.1 hPa SSW 10.6 km/h 16.1 km/h 82 % 0 mm
01:50 13.9 °C 10.9 °C 1014.1 hPa SSW 10.9 km/h 14.5 km/h 82 % 0 mm
01:54 13.9 °C 10.9 °C 1014.1 hPa SSW 8.5 km/h 13 km/h 82 % 0 mm
01:56 13.9 °C 10.9 °C 1014.1 hPa North 5.3 km/h 11.1 km/h 82 % 0 mm
02:02 13.8 °C 10.8 °C 1014.1 hPa SSW 7.9 km/h 13 km/h 82 % 0 mm
02:03 13.8 °C 10.8 °C 1014.1 hPa SSW 5.5 km/h 13 km/h 82 % 0 mm
02:08 13.7 °C 10.7 °C 1013.8 hPa SSW 6.1 km/h 9.7 km/h 82 % 0 mm
02:16 13.6 °C 10.8 °C 1013.8 hPa SSW 6.6 km/h 11.3 km/h 83 % 0 mm
02:20 13.5 °C 10.7 °C 1013.8 hPa SSW 7.9 km/h 16.7 km/h 83 % 0 mm
02:23 13.5 °C 10.7 °C 1013.8 hPa SSW 6.4 km/h 9.3 km/h 83 % 0 mm
02:24 13.5 °C 10.7 °C 1013.8 hPa SSW 6.3 km/h 9.3 km/h 83 % 0 mm
02:29 13.4 °C 10.6 °C 1013.8 hPa SSW 5.6 km/h 9.3 km/h 83 % 0 mm
02:30 13.4 °C 10.6 °C 1013.8 hPa North 5.6 km/h 8 km/h 83 % 0 mm
02:36 13.3 °C 10.6 °C 1013.8 hPa North 8 km/h 11.1 km/h 84 % 0 mm
02:41 13.2 °C 10.6 °C 1013.8 hPa SSW 9 km/h 16.7 km/h 84 % 0 mm
02:45 13.2 °C 10.5 °C 1013.8 hPa SSW 6.9 km/h 9.3 km/h 84 % 0 mm
02:49 13.1 °C 10.4 °C 1013.8 hPa SSW 10 km/h 13 km/h 84 % 0 mm
02:51 13.1 °C 10.4 °C 1013.4 hPa SSW 6.6 km/h 11.3 km/h 84 % 0 mm
02:55 13.1 °C 10.6 °C 1013.4 hPa North 6 km/h 9.3 km/h 85 % 0 mm
02:56 13.1 °C 10.6 °C 1013.4 hPa SSW 6.6 km/h 7.4 km/h 85 % 0 mm
03:01 13 °C 10.6 °C 1013.4 hPa North 7.4 km/h 11.1 km/h 85 % 0 mm
03:05 12.9 °C 10.5 °C 1013.4 hPa SSW 6.8 km/h 9.3 km/h 85 % 0 mm
03:10 12.9 °C 10.4 °C 1013.4 hPa SSW 6.6 km/h 9.3 km/h 85 % 0 mm
03:12 12.9 °C 10.4 °C 1013.4 hPa North 5.6 km/h 9.3 km/h 85 % 0 mm
03:17 12.8 °C 10.6 °C 1013.1 hPa SSW 6.9 km/h 7.4 km/h 86 % 0 mm
03:19 12.8 °C 10.5 °C 1013.1 hPa North 6.1 km/h 11.1 km/h 86 % 0 mm
03:24 12.8 °C 10.5 °C 1013.1 hPa SSW 6.8 km/h 11.1 km/h 86 % 0 mm
03:26 12.8 °C 10.5 °C 1013.1 hPa SSW 9.7 km/h 14.8 km/h 86 % 0 mm
03:27 12.7 °C 10.4 °C 1013.1 hPa SSW 7.4 km/h 9.7 km/h 86 % 0 mm
03:30 12.7 °C 10.4 °C 1013.1 hPa SSW 10.1 km/h 14.5 km/h 86 % 0 mm
03:32 12.7 °C 10.4 °C 1013.1 hPa SSW 5 km/h 14.8 km/h 86 % 0 mm
03:33 12.7 °C 10.4 °C 1013.1 hPa SSW 6.3 km/h 11.1 km/h 86 % 0 mm
03:38 12.6 °C 10.3 °C 1013.1 hPa North 8.5 km/h 13 km/h 86 % 0 mm
03:43 12.6 °C 10.4 °C 1013.4 hPa SSW 9.2 km/h 13 km/h 87 % 0 mm
03:44 12.6 °C 10.4 °C 1013.4 hPa SSW 8.9 km/h 11.3 km/h 87 % 0 mm
03:49 12.5 °C 10.4 °C 1013.4 hPa SSW 7.2 km/h 11.1 km/h 87 % 0 mm
03:50 12.5 °C 10.4 °C 1013.4 hPa SSW 8 km/h 11.1 km/h 87 % 0 mm
03:55 12.4 °C 10.3 °C 1013.4 hPa SSW 3.2 km/h 6.4 km/h 87 % 0 mm
03:57 12.4 °C 10.3 °C 1013.1 hPa North 3.5 km/h 9.3 km/h 87 % 0 mm
03:59 12.4 °C 10.3 °C 1013.1 hPa North 7.6 km/h 11.1 km/h 87 % 0 mm
04:04 12.3 °C 10.2 °C 1013.1 hPa SSW 5.3 km/h 8 km/h 87 % 0 mm
04:09 12.2 °C 10.1 °C 1013.1 hPa SSW 5.1 km/h 9.7 km/h 87 % 0 mm
04:10 12.2 °C 10.1 °C 1013.1 hPa SSW 7.9 km/h 9.7 km/h 87 % 0 mm
04:15 12.1 °C 10.2 °C 1013.1 hPa SSW 6.6 km/h 7.4 km/h 88 % 0 mm
04:18 12.1 °C 10.2 °C 1013.1 hPa SSW 3.4 km/h 7.4 km/h 88 % 0 mm
04:20 12.1 °C 10.1 °C 1013.1 hPa North 6 km/h 9.3 km/h 88 % 0 mm
04:21 12.1 °C 10.1 °C 1013.1 hPa SSW 5.6 km/h 7.4 km/h 88 % 0 mm
04:26 12.1 °C 10.3 °C 1013.1 hPa SSW 5 km/h 6.4 km/h 89 % 0 mm
04:30 12.1 °C 10.2 °C 1013.4 hPa North 2.7 km/h 5.6 km/h 88 % 0 mm
04:31 12.1 °C 10.3 °C 1013.1 hPa SSW 3.2 km/h 5.6 km/h 89 % 0 mm
04:32 12.1 °C 10.1 °C 1013.1 hPa North 3.4 km/h 5.6 km/h 88 % 0 mm
04:37 12.1 °C 10.3 °C 1013.4 hPa North 6.3 km/h 7.4 km/h 89 % 0 mm
04:45 12.1 °C 10.3 °C 1013.1 hPa North 4.5 km/h 5.6 km/h 89 % 0 mm
04:50 11.9 °C 10.2 °C 1013.1 hPa SSW 5 km/h 5.6 km/h 89 % 0 mm
04:55 11.8 °C 10.1 °C 1013.1 hPa North 0.5 km/h 3.7 km/h 89 % 0 mm
04:57 11.8 °C 10 °C 1013.1 hPa SSW 3.5 km/h 5.6 km/h 89 % 0 mm
05:03 11.7 °C 9.9 °C 1013.1 hPa North 3.9 km/h 5.6 km/h 89 % 0 mm
05:04 11.7 °C 9.9 °C 1013.1 hPa SSW 2.9 km/h 5.6 km/h 89 % 0 mm
05:09 11.6 °C 10 °C 1013.1 hPa SSW 5.5 km/h 7.4 km/h 90 % 0 mm
05:11 11.6 °C 10 °C 1013.1 hPa North 5.5 km/h 11.1 km/h 90 % 0 mm
05:12 11.6 °C 10 °C 1013.1 hPa North 4.5 km/h 7.4 km/h 90 % 0 mm
05:17 11.6 °C 10 °C 1013.4 hPa North 5.5 km/h 5.6 km/h 90 % 0 mm
05:22 11.6 °C 10 °C 1013.4 hPa SSW 7.6 km/h 9.3 km/h 90 % 0 mm
05:27 11.6 °C 9.9 °C 1013.4 hPa North 5.1 km/h 7.4 km/h 90 % 0 mm
05:30 11.5 °C 9.9 °C 1013.4 hPa North 6.6 km/h 7.4 km/h 90 % 0 mm
05:35 11.4 °C 9.9 °C 1013.4 hPa SSW 7.2 km/h 9.3 km/h 91 % 0 mm
05:37 11.3 °C 9.9 °C 1013.4 hPa SSW 7.1 km/h 7.4 km/h 91 % 0 mm
05:42 11.3 °C 9.9 °C 1013.4 hPa SSW 3.5 km/h 6.4 km/h 91 % 0 mm
05:43 11.2 °C 9.8 °C 1013.4 hPa North 5.8 km/h 9.3 km/h 91 % 0 mm
05:48 11.2 °C 9.8 °C 1013.4 hPa North 6.4 km/h 7.4 km/h 91 % 0 mm
05:50 11.2 °C 9.8 °C 1013.4 hPa North 4.8 km/h 5.6 km/h 91 % 0 mm
05:55 11.1 °C 9.7 °C 1013.8 hPa SSW 5.3 km/h 8 km/h 91 % 0 mm
05:57 11.1 °C 9.7 °C 1013.8 hPa SSW 4.7 km/h 9.3 km/h 91 % 0 mm
06:02 11 °C 9.6 °C 1013.4 hPa North 7.6 km/h 9.3 km/h 91 % 0 mm
06:04 11 °C 9.6 °C 1013.8 hPa SSW 5.8 km/h 7.4 km/h 91 % 0 mm
06:09 10.9 °C 9.6 °C 1013.8 hPa North 6.3 km/h 7.4 km/h 91 % 0 mm
06:13 10.9 °C 9.7 °C 1013.8 hPa SSW 5.1 km/h 7.4 km/h 92 % 0 mm
06:18 10.9 °C 9.7 °C 1013.8 hPa SSW 4.5 km/h 7.4 km/h 92 % 0 mm
06:19 10.9 °C 9.7 °C 1013.8 hPa SSW 4.2 km/h 7.4 km/h 92 % 0 mm
06:23 10.9 °C 9.7 °C 1013.8 hPa SSW 6.4 km/h 8 km/h 92 % 0 mm
06:28 10.9 °C 9.7 °C 1013.8 hPa SSW 5.3 km/h 7.4 km/h 92 % 0 mm
06:30 10.9 °C 9.7 °C 1014.1 hPa North 6.3 km/h 8 km/h 92 % 0 mm
06:34 10.9 °C 9.7 °C 1014.1 hPa SSW 4 km/h 5.6 km/h 92 % 0 mm
06:39 11.1 °C 10 °C 1014.1 hPa SSW 6.4 km/h 7.4 km/h 93 % 0 mm
06:41 11.2 °C 10.1 °C 1014.1 hPa SSW 4.8 km/h 5.6 km/h 93 % 0 mm
06:42 11.2 °C 10.1 °C 1014.1 hPa North 3.7 km/h 5.6 km/h 93 % 0 mm
06:47 11.2 °C 10.1 °C 1014.1 hPa SSW 5.5 km/h 7.4 km/h 93 % 0 mm
06:50 11.3 °C 10.2 °C 1014.1 hPa SSW 4 km/h 5.6 km/h 93 % 0 mm
06:55 11.4 °C 10.3 °C 1014.1 hPa SSW 5.1 km/h 5.6 km/h 93 % 0 mm
06:56 11.4 °C 10.3 °C 1014.1 hPa SSW 4 km/h 5.6 km/h 93 % 0 mm
07:01 11.6 °C 10.5 °C 1014.1 hPa SSW 6.8 km/h 11.1 km/h 93 % 0 mm
07:06 11.7 °C 10.6 °C 1014.1 hPa SSW 5.1 km/h 8 km/h 93 % 0 mm
07:11 11.9 °C 10.6 °C 1014.1 hPa SSW 5.5 km/h 9.3 km/h 92 % 0 mm
07:13 11.9 °C 10.6 °C 1014.1 hPa North 6.1 km/h 8 km/h 92 % 0 mm
07:16 12.1 °C 10.9 °C 1014.1 hPa North 5.1 km/h 5.6 km/h 93 % 0 mm
07:18 12.1 °C 10.8 °C 1014.1 hPa SSW 5.3 km/h 7.4 km/h 92 % 0 mm
07:23 12.3 °C 11 °C 1014.1 hPa SSW 3.2 km/h 5.6 km/h 92 % 0 mm
07:24 12.3 °C 11.1 °C 1014.1 hPa SSW 5.8 km/h 8 km/h 92 % 0 mm
07:30 12.5 °C 11.2 °C 1014.1 hPa SSW 7.6 km/h 8 km/h 92 % 0 mm
07:33 12.6 °C 11.3 °C 1014.1 hPa SSW 6.6 km/h 9.3 km/h 92 % 0 mm
07:35 12.7 °C 11.4 °C 1014.1 hPa SSW 3.4 km/h 7.4 km/h 92 % 0 mm
07:40 12.9 °C 11.5 °C 1014.1 hPa SSW 2.1 km/h 3.7 km/h 91 % 0 mm
07:45 13.3 °C 11.9 °C 1014.1 hPa SSW 1.4 km/h 1.9 km/h 91 % 0 mm
07:50 13.5 °C 11.7 °C 1014.1 hPa North 4.3 km/h 5.6 km/h 89 % 0 mm
07:53 13.6 °C 11.8 °C 1014.1 hPa SSW 6.3 km/h 7.4 km/h 89 % 0 mm
07:55 13.6 °C 11.8 °C 1014.1 hPa SSW 4.3 km/h 8 km/h 89 % 0 mm
08:01 13.8 °C 11.8 °C 1014.1 hPa SSW 5 km/h 5.6 km/h 88 % 0 mm
08:08 14.2 °C 12.3 °C 1014.4 hPa SSW 5 km/h 6.4 km/h 88 % 0 mm
08:09 14.3 °C 12.3 °C 1014.4 hPa North 3.7 km/h 5.6 km/h 88 % 0 mm
08:10 14.4 °C 12.3 °C 1014.4 hPa SSW 5.1 km/h 6.4 km/h 87 % 0 mm
08:13 14.5 °C 12.3 °C 1014.4 hPa SSW 6.1 km/h 11.1 km/h 87 % 0 mm
08:15 14.6 °C 12.2 °C 1014.4 hPa SSW 6 km/h 7.4 km/h 86 % 0 mm
08:18 14.6 °C 12.3 °C 1014.4 hPa SSW 1.6 km/h 3.7 km/h 86 % 0 mm
08:19 14.7 °C 12.3 °C 1014.4 hPa SSW 2.6 km/h 5.6 km/h 86 % 0 mm
08:20 14.8 °C 12.5 °C 1014.4 hPa SSW 2.4 km/h 5.6 km/h 86 % 0 mm
08:21 14.9 °C 12.6 °C 1014.4 hPa SSW 3.4 km/h 5.6 km/h 86 % 0 mm
08:26 15.1 °C 12.4 °C 1014.4 hPa SSW 3.2 km/h 6.4 km/h 84 % 0 mm
08:28 15.2 °C 12.3 °C 1014.4 hPa SSW 3.5 km/h 7.4 km/h 83 % 0 mm
08:30 15.2 °C 12.3 °C 1014.4 hPa SSW 7.4 km/h 8 km/h 83 % 0 mm
08:31 15.3 °C 12.4 °C 1014.4 hPa North 6.8 km/h 7.4 km/h 83 % 0 mm
08:33 15.3 °C 12.4 °C 1014.4 hPa SSW 3.7 km/h 5.6 km/h 83 % 0 mm
08:34 15.3 °C 12.4 °C 1014.4 hPa North 4.5 km/h 5.6 km/h 83 % 0 mm
08:42 15.9 °C 12.8 °C 1014.4 hPa South 6.6 km/h 9.3 km/h 82 % 0 mm
08:43 15.9 °C 12.9 °C 1014.4 hPa South 6 km/h 9.3 km/h 82 % 0 mm
08:46 16.4 °C 13.1 °C 1014.4 hPa South 4.3 km/h 9.3 km/h 81 % 0 mm
08:48 16.5 °C 12.8 °C 1014.8 hPa South 3.2 km/h 5.6 km/h 79 % 0 mm
08:51 16.6 °C 12.8 °C 1014.8 hPa South 2.6 km/h 5.6 km/h 78 % 0 mm
08:57 16.6 °C 12.7 °C 1014.8 hPa South 5.3 km/h 8 km/h 78 % 0 mm
09:00 16.6 °C 12.6 °C 1014.8 hPa South 3.5 km/h 5.6 km/h 77 % 0 mm
09:05 16.9 °C 12.6 °C 1014.8 hPa South 5.6 km/h 7.4 km/h 76 % 0 mm
09:07 16.9 °C 12.7 °C 1014.8 hPa South 5.6 km/h 7.4 km/h 76 % 0 mm
09:12 17.1 °C 12.8 °C 1014.8 hPa South 3.4 km/h 5.6 km/h 76 % 0 mm
09:16 17.3 °C 12.8 °C 1014.8 hPa South 3.7 km/h 5.6 km/h 75 % 0 mm
09:21 17.7 °C 13 °C 1014.8 hPa South 0.5 km/h 3.7 km/h 74 % 0 mm
09:26 18.2 °C 13.2 °C 1014.8 hPa South 2.4 km/h 6.4 km/h 73 % 0 mm
09:32 19 °C 13.6 °C 1014.8 hPa South 2.9 km/h 7.4 km/h 71 % 0 mm
09:37 19.7 °C 13.4 °C 1014.8 hPa South 3.5 km/h 5.6 km/h 67 % 0 mm
09:42 20.1 °C 13.6 °C 1014.4 hPa South 3.4 km/h 7.4 km/h 66 % 0 mm
09:44 20.3 °C 13.5 °C 1014.4 hPa South 1.1 km/h 5.6 km/h 65 % 0 mm
09:45 20.3 °C 13.5 °C 1014.4 hPa South 2.3 km/h 3.7 km/h 65 % 0 mm
09:50 20.7 °C 13.4 °C 1014.4 hPa South 3.9 km/h 7.4 km/h 63 % 0 mm
09:55 20.9 °C 13.1 °C 1014.4 hPa South 4.3 km/h 7.4 km/h 61 % 0 mm
09:57 21 °C 13.2 °C 1014.4 hPa South 1.4 km/h 5.6 km/h 61 % 0 mm
10:02 21.3 °C 13.2 °C 1014.4 hPa South 2.3 km/h 3.7 km/h 60 % 0 mm
10:07 21.9 °C 13.6 °C 1014.4 hPa South 6.3 km/h 6.4 km/h 59 % 0 mm
10:13 22.3 °C 13.4 °C 1014.1 hPa South 2.1 km/h 5.6 km/h 57 % 0 mm
10:18 22.5 °C 13 °C 1014.1 hPa South 0.8 km/h 3.2 km/h 55 % 0 mm
10:25 22.6 °C 12.8 °C 1014.4 hPa South 2.9 km/h 5.6 km/h 54 % 0 mm
10:30 22.9 °C 12.6 °C 1014.1 hPa South 5.1 km/h 9.3 km/h 52 % 0 mm
10:33 22.9 °C 12.6 °C 1014.1 hPa South 5.6 km/h 7.4 km/h 52 % 0 mm
10:36 23.1 °C 13 °C 1014.1 hPa South 0.2 km/h 1.9 km/h 53 % 0 mm
10:39 23.3 °C 12.9 °C 1014.4 hPa South 7.1 km/h 11.1 km/h 52 % 0 mm
10:44 23.9 °C 12.9 °C 1014.1 hPa South 5.1 km/h 5.6 km/h 50 % 0 mm
10:46 24.3 °C 13.2 °C 1014.1 hPa South 3.1 km/h 5.6 km/h 50 % 0 mm
10:51 24.8 °C 12.7 °C 1014.1 hPa SSE 5 km/h 7.4 km/h 47 % 0 mm
10:52 24.9 °C 13.1 °C 1014.1 hPa SSE 4.3 km/h 8 km/h 48 % 0 mm
10:57 25.3 °C 13.2 °C 1014.1 hPa SSE 1.1 km/h 3.7 km/h 47 % 0 mm
11:02 25.8 °C 13 °C 1014.1 hPa SSE 1.4 km/h 3.7 km/h 45 % 0 mm
11:06 26.3 °C 12.3 °C 1014.1 hPa SSE 1.3 km/h 5.6 km/h 42 % 0 mm
11:11 26.2 °C 12.3 °C 1014.1 hPa SSE 8.7 km/h 11.1 km/h 42 % 0 mm
11:16 25.9 °C 12 °C 1013.8 hPa SSE 3.9 km/h 5.6 km/h 42 % 0 mm
11:21 25.6 °C 11.7 °C 1013.8 hPa SSE 2.6 km/h 5.6 km/h 42 % 0 mm
11:22 25.6 °C 11.7 °C 1013.8 hPa SSE 2.7 km/h 5.6 km/h 42 % 0 mm
11:27 25.6 °C 11.7 °C 1013.8 hPa SSE 1.1 km/h 1.9 km/h 42 % 0 mm
11:29 25.8 °C 11.5 °C 1013.8 hPa SSE 3.1 km/h 8 km/h 41 % 0 mm
11:34 25.8 °C 10.8 °C 1013.8 hPa North 2.4 km/h 5.6 km/h 39 % 0 mm
11:36 26.1 °C 11.8 °C 1013.8 hPa SW 2.6 km/h 7.4 km/h 41 % 0 mm
11:38 26.3 °C 11.2 °C 1013.8 hPa SSW 3.2 km/h 3.7 km/h 39 % 0 mm
11:43 26.6 °C 12.3 °C 1013.4 hPa South 8 km/h 9.3 km/h 41 % 0 mm
11:47 26.6 °C 11.5 °C 1013.4 hPa South 2.4 km/h 5.6 km/h 39 % 0 mm
11:48 26.6 °C 11.4 °C 1013.4 hPa South 3.1 km/h 3.7 km/h 39 % 0 mm
11:53 27 °C 11.4 °C 1013.4 hPa South 3.4 km/h 5.6 km/h 38 % 0 mm
11:55 27.1 °C 11.1 °C 1013.4 hPa South 4.2 km/h 5.6 km/h 37 % 0 mm
11:57 27.2 °C 11.6 °C 1013.4 hPa South 3.1 km/h 8 km/h 38 % 0 mm
12:02 27.2 °C 11.6 °C 1013.1 hPa North 2.3 km/h 4.8 km/h 38 % 0 mm
12:05 27.3 °C 10.9 °C 1013.1 hPa SE 8.4 km/h 14.5 km/h 36 % 0 mm
12:07 27.5 °C 11.5 °C 1013.1 hPa SE 8.2 km/h 16.1 km/h 37 % 0 mm
12:12 27.7 °C 11.3 °C 1013.1 hPa SE 10 km/h 11.3 km/h 36 % 0 mm
12:17 28.1 °C 11.2 °C 1013.1 hPa SE 3.1 km/h 3.7 km/h 35 % 0 mm
12:18 28.2 °C 10.8 °C 1013.1 hPa SE 2.7 km/h 5.6 km/h 34 % 0 mm
12:23 28.1 °C 8.9 °C 1013.1 hPa WNW 8.4 km/h 13 km/h 30 % 0 mm
12:28 27.9 °C 8.8 °C 1013.1 hPa NW 5.8 km/h 9.3 km/h 30 % 0 mm
12:31 27.9 °C 8.3 °C 1013.1 hPa NW 0.2 km/h 5.6 km/h 29 % 0 mm
12:32 28 °C 8.3 °C 1013.1 hPa North 1.8 km/h 5.6 km/h 29 % 0 mm
12:37 28.6 °C 8.8 °C 1013.1 hPa WNW 8.2 km/h 13 km/h 29 % 0 mm
12:38 28.8 °C 9.5 °C 1013.1 hPa WNW 7.7 km/h 12.9 km/h 30 % 0 mm
12:42 28.8 °C 8.4 °C 1012.8 hPa North 5.8 km/h 13 km/h 28 % 0 mm
12:44 28.7 °C 9.9 °C 1012.8 hPa West 4.7 km/h 5.6 km/h 31 % 0 mm
12:49 28.9 °C 8.6 °C 1012.8 hPa West 5.5 km/h 7.4 km/h 28 % 0 mm
12:54 29.1 °C 8.2 °C 1012.8 hPa West 2.4 km/h 5.6 km/h 27 % 0 mm
12:55 29.1 °C 8.7 °C 1012.8 hPa West 3.4 km/h 5.6 km/h 28 % 0 mm
13:00 29.4 °C 9 °C 1012.8 hPa SW 8.4 km/h 18.5 km/h 28 % 0 mm
13:04 29.4 °C 9 °C 1012.4 hPa West 11.1 km/h 16.7 km/h 28 % 0 mm
13:06 29.3 °C 8.9 °C 1012.4 hPa North 10.6 km/h 14.8 km/h 28 % 0 mm
13:11 29.3 °C 8.9 °C 1012.4 hPa West 3.5 km/h 8 km/h 28 % 0 mm
13:14 29.3 °C 9.4 °C 1012.4 hPa NW 6.6 km/h 9.3 km/h 29 % 0 mm
13:16 29.4 °C 9 °C 1012.4 hPa WNW 10.6 km/h 16.7 km/h 28 % 0 mm
13:24 29.6 °C 9.2 °C 1012.1 hPa NW 9.2 km/h 11.1 km/h 28 % 0 mm
13:26 29.5 °C 9.1 °C 1012.1 hPa WNW 9.7 km/h 11.1 km/h 28 % 0 mm
13:29 29.6 °C 9.7 °C 1012.1 hPa WNW 12.6 km/h 16.7 km/h 29 % 0 mm
13:31 29.7 °C 9.7 °C 1012.1 hPa WNW 8.7 km/h 13 km/h 29 % 0 mm
13:36 29.9 °C 9.4 °C 1012.1 hPa North 5 km/h 7.4 km/h 28 % 0 mm
13:37 29.9 °C 10 °C 1012.1 hPa NW 8.4 km/h 16.7 km/h 29 % 0 mm
13:42 30.2 °C 9.7 °C 1012.1 hPa WNW 10.1 km/h 16.7 km/h 28 % 0 mm
13:44 30.2 °C 9.7 °C 1012.1 hPa North 11.7 km/h 14.8 km/h 28 % 0 mm
13:49 29.9 °C 9.4 °C 1012.1 hPa West 11.6 km/h 18.5 km/h 28 % 0 mm
13:50 29.9 °C 9.9 °C 1012.1 hPa WSW 11.1 km/h 16.7 km/h 29 % 0 mm
13:55 30 °C 9.5 °C 1011.7 hPa WNW 13.4 km/h 20.4 km/h 28 % 0 mm
13:58 30.3 °C 10.3 °C 1011.7 hPa WNW 8.5 km/h 13 km/h 29 % 0 mm
14:00 30.4 °C 9.8 °C 1011.7 hPa North 18.8 km/h 18.8 km/h 28 % 0 mm
14:03 30.4 °C 9.8 °C 1011.7 hPa North 11.9 km/h 14.8 km/h 28 % 0 mm
14:09 30.6 °C 10 °C 1011.4 hPa NW 11.1 km/h 14.8 km/h 28 % 0 mm
14:10 30.7 °C 9.5 °C 1011.4 hPa North 15.6 km/h 22.2 km/h 27 % 0 mm
14:11 30.7 °C 10.1 °C 1011.4 hPa West 11.7 km/h 18.5 km/h 28 % 0 mm
14:16 30.7 °C 9 °C 1011.4 hPa NNW 8.2 km/h 13 km/h 26 % 0 mm
14:21 30.7 °C 9.5 °C 1011.4 hPa North 16.1 km/h 22.2 km/h 27 % 0 mm
14:22 30.7 °C 9 °C 1011.4 hPa North 14.8 km/h 20.9 km/h 26 % 0 mm
14:27 30.8 °C 9.1 °C 1011.1 hPa North 8.9 km/h 16.7 km/h 26 % 0 mm
14:28 30.9 °C 9.2 °C 1011.1 hPa WNW 8.2 km/h 13 km/h 26 % 0 mm
14:30 31.1 °C 9.3 °C 1011.4 hPa North 7.6 km/h 13 km/h 26 % 0 mm
14:35 31.2 °C 9.4 °C 1011.4 hPa NW 10.6 km/h 14.8 km/h 26 % 0 mm
14:36 31.3 °C 8.9 °C 1011.4 hPa NW 14.2 km/h 18.5 km/h 25 % 0 mm
14:41 31.2 °C 8.8 °C 1011.4 hPa North 16.1 km/h 20.4 km/h 25 % 0 mm
14:44 31.2 °C 8.8 °C 1011.1 hPa North 12.1 km/h 16.7 km/h 25 % 0 mm
14:45 31.3 °C 8.9 °C 1011.1 hPa West 10.3 km/h 16.7 km/h 25 % 0 mm
14:50 31.9 °C 8.8 °C 1011.1 hPa West 15.1 km/h 18.5 km/h 24 % 0 mm
14:51 31.9 °C 8.8 °C 1011.1 hPa NW 12.1 km/h 16.7 km/h 24 % 0 mm
14:56 31.9 °C 8.8 °C 1011.1 hPa North 7.6 km/h 11.1 km/h 24 % 0 mm
14:59 31.8 °C 8.7 °C 1010.7 hPa NW 6.1 km/h 7.4 km/h 24 % 0 mm
15:00 31.7 °C 9.3 °C 1010.7 hPa NW 4.5 km/h 7.4 km/h 25 % 0 mm
15:05 31.9 °C 6.8 °C 1010.7 hPa NW 15.1 km/h 20.4 km/h 21 % 0 mm
15:10 31.9 °C 5.4 °C 1010.7 hPa NW 11.1 km/h 14.8 km/h 19 % 0 mm
15:15 31.5 °C 7.2 °C 1010.7 hPa NNW 10.3 km/h 20.4 km/h 22 % 0 mm
15:16 31.5 °C 7.2 °C 1010.7 hPa NNW 14.2 km/h 20.9 km/h 22 % 0 mm
15:17 31.6 °C 7.9 °C 1010.7 hPa North 14.8 km/h 22.2 km/h 23 % 0 mm
15:22 32.2 °C 7.1 °C 1010.7 hPa North 9 km/h 14.8 km/h 21 % 0 mm
15:27 32 °C 6.9 °C 1010.7 hPa NNW 7.2 km/h 11.1 km/h 21 % 0 mm
15:32 32.3 °C 6.5 °C 1010.7 hPa NW 11.9 km/h 20.4 km/h 20 % 0 mm
15:33 32.3 °C 6.5 °C 1010.7 hPa NNW 10.6 km/h 16.7 km/h 20 % 0 mm
15:38 32.3 °C 7.8 °C 1010.7 hPa West 16.3 km/h 22.2 km/h 22 % 0 mm
15:43 32 °C 7.6 °C 1010.4 hPa North 6.9 km/h 13 km/h 22 % 0 mm
15:44 32 °C 7.6 °C 1010.4 hPa North 7.1 km/h 11.1 km/h 22 % 0 mm
15:45 32 °C 7.6 °C 1010.4 hPa NW 10.5 km/h 18.5 km/h 22 % 0 mm
15:50 32.3 °C 7.8 °C 1010.7 hPa WNW 18.2 km/h 25.9 km/h 22 % 0 mm
15:53 32.4 °C 7.3 °C 1010.4 hPa North 16.6 km/h 22.2 km/h 21 % 0 mm
15:59 32.4 °C 7.3 °C 1010.4 hPa NW 8.9 km/h 12.9 km/h 21 % 0 mm
16:04 32.4 °C 7.3 °C 1010.4 hPa WNW 8 km/h 11.3 km/h 21 % 0 mm
16:09 32.6 °C 6.7 °C 1010 hPa North 9.2 km/h 13 km/h 20 % 0 mm
16:11 32.6 °C 6.7 °C 1010 hPa NNE 8.7 km/h 16.7 km/h 20 % 0 mm
16:16 32.6 °C 6.7 °C 1010 hPa WNW 14.6 km/h 20.4 km/h 20 % 0 mm
16:18 32.7 °C 7.5 °C 1010 hPa NW 13.5 km/h 17.7 km/h 21 % 0 mm
16:23 32.7 °C 7.6 °C 1010 hPa NW 16.6 km/h 22.2 km/h 21 % 0 mm
16:24 32.7 °C 7.6 °C 1010 hPa NW 10.6 km/h 16.7 km/h 21 % 0 mm
16:29 32.6 °C 6.7 °C 1010 hPa West 6.8 km/h 11.1 km/h 20 % 0 mm
16:34 32.6 °C 7.4 °C 1010 hPa WNW 8.4 km/h 18.5 km/h 21 % 0 mm
16:35 32.6 °C 6.7 °C 1010 hPa WNW 7.7 km/h 13 km/h 20 % 0 mm
16:39 32.9 °C 7.7 °C 1010 hPa NNW 9 km/h 9 km/h 21 % 0 mm
16:40 32.9 °C 7 °C 1010 hPa NNW 9.7 km/h 12.9 km/h 20 % 0 mm
16:45 32.9 °C 6.3 °C 1010 hPa NW 9.5 km/h 14.8 km/h 19 % 0 mm
16:50 33.1 °C 6.4 °C 1010 hPa NNW 1.1 km/h 5.6 km/h 19 % 0 mm
16:55 33.4 °C 6.7 °C 1009.7 hPa NW 10.9 km/h 16.7 km/h 19 % 0 mm
17:00 33.6 °C 6.8 °C 1009.7 hPa North 9 km/h 13 km/h 19 % 0 mm
17:03 33.7 °C 6.8 °C 1009.7 hPa West 13.2 km/h 20.9 km/h 19 % 0 mm
17:06 33.4 °C 6.7 °C 1009.7 hPa WNW 14.5 km/h 18.5 km/h 19 % 0 mm
17:11 33.1 °C 6.4 °C 1009.7 hPa West 9.8 km/h 11.1 km/h 19 % 0 mm
17:16 33.1 °C 6.4 °C 1009.7 hPa WNW 10.1 km/h 14.8 km/h 19 % 0 mm
17:17 33.2 °C 6.4 °C 1009.7 hPa NW 6.4 km/h 14.8 km/h 19 % 0 mm
17:18 33.2 °C 7.2 °C 1009.7 hPa NW 9.8 km/h 11.3 km/h 20 % 0 mm
17:23 33.2 °C 6.5 °C 1009.7 hPa NNW 13.2 km/h 18.5 km/h 19 % 0 mm
17:24 33.2 °C 7.2 °C 1009.7 hPa North 10.1 km/h 14.8 km/h 20 % 0 mm
17:29 33.1 °C 6.3 °C 1009.7 hPa WNW 11.3 km/h 18.5 km/h 19 % 0 mm
17:30 33.1 °C 6.3 °C 1009.7 hPa West 8.7 km/h 13 km/h 19 % 0 mm
17:34 33.2 °C 6.5 °C 1009.4 hPa WNW 6.4 km/h 9.3 km/h 19 % 0 mm
17:39 33.6 °C 6.8 °C 1009.4 hPa WNW 6.9 km/h 11.3 km/h 19 % 0 mm
17:40 33.6 °C 6.8 °C 1009.4 hPa North 9.8 km/h 16.7 km/h 19 % 0 mm
17:45 33.4 °C 5.8 °C 1009.4 hPa North 10.8 km/h 16.7 km/h 18 % 0 mm
17:50 33.1 °C 6.4 °C 1009.4 hPa WNW 12.7 km/h 14.8 km/h 19 % 0 mm
17:53 33.2 °C 6.4 °C 1009.4 hPa WNW 7.9 km/h 13 km/h 19 % 0 mm
17:56 33.3 °C 6.5 °C 1009.4 hPa WNW 7.9 km/h 14.5 km/h 19 % 0 mm
17:58 33.3 °C 6.5 °C 1009.4 hPa WNW 4.7 km/h 11.1 km/h 19 % 0 mm
18:04 33.2 °C 6.4 °C 1009.4 hPa North 5.3 km/h 16.7 km/h 19 % 0 mm
18:09 33.3 °C 5.7 °C 1009.4 hPa North 1 km/h 3.7 km/h 18 % 0 mm
18:10 33.3 °C 6.6 °C 1009.4 hPa North 1 km/h 4.8 km/h 19 % 0 mm
18:16 33.5 °C 6.7 °C 1009 hPa North 4.7 km/h 4.8 km/h 19 % 0 mm
18:21 33.7 °C 6.1 °C 1009 hPa WNW 11.1 km/h 11.3 km/h 18 % 0 mm
18:23 33.7 °C 5.2 °C 1009 hPa WNW 6.4 km/h 11.1 km/h 17 % 0 mm
18:28 33.6 °C 5.2 °C 1009 hPa West 15 km/h 18.5 km/h 17 % 0 mm
18:34 33.6 °C 5.2 °C 1009 hPa West 10 km/h 13 km/h 17 % 0 mm
18:36 33.4 °C 5.1 °C 1009 hPa WNW 5 km/h 7.4 km/h 17 % 0 mm
18:41 33.6 °C 5.2 °C 1009 hPa West 1.4 km/h 5.6 km/h 17 % 0 mm
18:42 33.6 °C 5.2 °C 1009 hPa West 1 km/h 5.6 km/h 17 % 0 mm
18:44 33.5 °C 5.1 °C 1009 hPa WNW 0.5 km/h 1.6 km/h 17 % 0 mm
18:47 33.6 °C 5.2 °C 1009 hPa West 1.8 km/h 5.6 km/h 17 % 0 mm
18:52 33.8 °C 5.3 °C 1009 hPa West 5 km/h 7.4 km/h 17 % 0 mm
18:53 33.8 °C 5.3 °C 1009 hPa West 3.7 km/h 5.6 km/h 17 % 0 mm
18:57 33.8 °C 6.2 °C 1009.4 hPa West 4.3 km/h 7.4 km/h 18 % 0 mm
19:00 33.9 °C 5.4 °C 1009.4 hPa WNW 4.5 km/h 6.4 km/h 17 % 0 mm
19:02 33.9 °C 5.4 °C 1009.4 hPa WNW 2.7 km/h 5.6 km/h 17 % 0 mm
19:06 34 °C 5.5 °C 1009.4 hPa WNW 4.2 km/h 5.6 km/h 17 % 0 mm
19:12 33.8 °C 6.2 °C 1009.4 hPa WNW 4.5 km/h 6.4 km/h 18 % 0 mm
19:13 33.8 °C 6.2 °C 1009.4 hPa WNW 5.6 km/h 9.3 km/h 18 % 0 mm
19:18 33.7 °C 5.3 °C 1009.4 hPa WNW 6.3 km/h 9.3 km/h 17 % 0 mm
19:22 33.6 °C 6 °C 1009.4 hPa WNW 3.4 km/h 6.4 km/h 18 % 0 mm
19:25 33.6 °C 5.2 °C 1009.4 hPa WNW 0.6 km/h 5.6 km/h 17 % 0 mm
19:30 33.5 °C 5.9 °C 1009.4 hPa WNW 3.1 km/h 5.6 km/h 18 % 0 mm
19:35 33.2 °C 6.5 °C 1009.4 hPa WNW 2.9 km/h 5.6 km/h 19 % 0 mm
19:40 32.8 °C 6.2 °C 1009.4 hPa WNW 7.1 km/h 7.4 km/h 19 % 0 mm
19:43 32.7 °C 6.1 °C 1009.4 hPa WNW 2.4 km/h 3.7 km/h 19 % 0 mm
19:48 32.6 °C 6 °C 1009.4 hPa North 2.6 km/h 3.7 km/h 19 % 0 mm
19:49 32.6 °C 5.9 °C 1009.4 hPa WNW 3.9 km/h 5.6 km/h 19 % 0 mm
19:54 32.4 °C 5.8 °C 1009.4 hPa WNW 3.4 km/h 5.6 km/h 19 % 0 mm
19:57 32.4 °C 6.6 °C 1009.4 hPa North 1.8 km/h 3.7 km/h 20 % 0 mm
20:02 32.4 °C 5.8 °C 1009.4 hPa Calm   1.9 km/h 19 % 0 mm
20:03 32.4 °C 5.8 °C 1009.4 hPa Calm     19 % 0 mm
20:08 32.4 °C 7.3 °C 1009.4 hPa Calm     21 % 0 mm
20:09 32.4 °C 7.3 °C 1009.4 hPa Calm     21 % 0 mm
20:10 32.4 °C 7.3 °C 1009.4 hPa Calm     21 % 0 mm
20:15 32.3 °C 8.6 °C 1009.4 hPa Calm     23 % 0 mm
20:20 32.2 °C 7.8 °C 1009.4 hPa Calm     22 % 0 mm
20:21 32.2 °C 7.8 °C 1009.4 hPa Calm     22 % 0 mm
20:23 32.1 °C 9 °C 1009.4 hPa Calm     24 % 0 mm
20:26 31.9 °C 8.8 °C 1009.4 hPa Calm     24 % 0 mm
20:30 31.6 °C 8.6 °C 1009.4 hPa Calm     24 % 0 mm
20:33 31.3 °C 9.5 °C 1009.4 hPa Calm     26 % 0 mm
20:43 30 °C 8.9 °C 1009.4 hPa Calm     27 % 0 mm
20:45 29.8 °C 9.3 °C 1009.7 hPa Calm     28 % 0 mm
20:50 29.1 °C 9.2 °C 1009.7 hPa Calm     29 % 0 mm
20:53 28.7 °C 9.4 °C 1009.7 hPa Calm     30 % 0 mm
20:59 27.9 °C 9.2 °C 1009.7 hPa Calm     31 % 0 mm
21:04 27.4 °C 9.7 °C 1009.7 hPa WNW 0.8 km/h 1.6 km/h 33 % 0 mm
21:09 26.8 °C 9.6 °C 1009.7 hPa Calm     34 % 0 mm
21:13 26.6 °C 9.8 °C 1009.7 hPa Calm     35 % 0 mm
21:16 26.3 °C 10.4 °C 1009.7 hPa Calm     37 % 0 mm
21:18 26 °C 10.2 °C 1009.7 hPa Calm     37 % 0 mm
21:23 25.4 °C 9.6 °C 1009.7 hPa Calm     37 % 0 mm
21:28 25.1 °C 9.3 °C 1009.7 hPa Calm     37 % 0 mm
21:29 25 °C 9.7 °C 1009.7 hPa Calm     38 % 0 mm
21:34 24.8 °C 9.5 °C 1009.7 hPa Calm     38 % 0 mm
21:36 24.7 °C 9.1 °C 1009.7 hPa Calm     37 % 0 mm
21:41 24.6 °C 9.3 °C 1010 hPa Calm     38 % 0 mm
21:47 24.5 °C 9.6 °C 1009.7 hPa Calm     39 % 0 mm
21:52 24.1 °C 9.6 °C 1009.7 hPa Calm     40 % 0 mm
21:53 23.9 °C 9.4 °C 1010 hPa Calm     40 % 0 mm
21:58 23.7 °C 8.9 °C 1009.7 hPa Calm     39 % 0 mm
21:59 23.7 °C 9.3 °C 1009.7 hPa Calm     40 % 0 mm
22:03 23.5 °C 9.1 °C 1009.7 hPa Calm     40 % 0 mm
22:08 23.4 °C 9.1 °C 1009.7 hPa Calm     40 % 0 mm
22:09 23.4 °C 9.4 °C 1009.7 hPa Calm     41 % 0 mm
22:14 23.3 °C 9.7 °C 1009.7 hPa Calm     42 % 0 mm
22:15 23.3 °C 9.7 °C 1009.7 hPa Calm     42 % 0 mm
22:20 23 °C 9.4 °C 1009.7 hPa Calm     42 % 0 mm
22:21 23 °C 9.4 °C 1009.7 hPa Calm     42 % 0 mm
22:26 22.8 °C 8.9 °C 1009.7 hPa Calm     41 % 0 mm
22:27 22.8 °C 8.9 °C 1009.7 hPa Calm     41 % 0 mm
22:32 22.9 °C 8.6 °C 1009.7 hPa Calm     40 % 0 mm
22:33 22.9 °C 8.6 °C 1009.7 hPa Calm     40 % 0 mm
22:36 22.8 °C 8.8 °C 1009.7 hPa Calm     41 % 0 mm
22:39 22.7 °C 8.7 °C 1009.7 hPa Calm     41 % 0 mm
22:44 22.4 °C 8.6 °C 1009.7 hPa Calm     41 % 0 mm
22:49 22.4 °C 8.8 °C 1009.7 hPa Calm     42 % 0 mm
22:54 22.3 °C 8.7 °C 1009.7 hPa Calm     42 % 0 mm
23:00 22.1 °C 9.2 °C 1009.7 hPa Calm     44 % 0 mm
23:05 21.8 °C 9.4 °C 1009.7 hPa Calm     45 % 0 mm
23:06 21.8 °C 9.3 °C 1009.7 hPa Calm     45 % 0 mm
23:11 21.3 °C 8.9 °C 1009.7 hPa Calm     45 % 0 mm
23:12 21.3 °C 8.8 °C 1009.7 hPa Calm     45 % 0 mm
23:15 21.3 °C 9.5 °C 1009.7 hPa Calm     47 % 0 mm
23:18 21.3 °C 8.9 °C 1009.7 hPa Calm     45 % 0 mm
23:23 21.4 °C 8.7 °C 1009.7 hPa WNW 2.6 km/h 3.7 km/h 44 % 0 mm
23:24 21.4 °C 8.7 °C 1009.7 hPa WNW 2.3 km/h 3.7 km/h 44 % 0 mm
23:29 21.6 °C 8.8 °C 1009.7 hPa Calm     44 % 0 mm
23:34 21.5 °C 9.1 °C 1009.7 hPa Calm     45 % 0 mm
23:35 21.5 °C 9.1 °C 1009.7 hPa Calm     45 % 0 mm
23:40 21.4 °C 9.6 °C 1009.7 hPa Calm     47 % 0 mm
23:41 21.3 °C 9.6 °C 1009.7 hPa Calm     47 % 0 mm
23:46 21.1 °C 9.3 °C 1009.7 hPa Calm     47 % 0 mm
23:51 20.8 °C 9.7 °C 1009.7 hPa Calm     49 % 0 mm
23:53 20.7 °C 9.6 °C 1009.7 hPa Calm     49 % 0 mm
23:58 20.4 °C 9.7 °C 1009.7 hPa Calm     50 % 0 mm
Ararat Weather
Compliments of Weather Underground - 3.25 mb
Click here to send mail.


ABOUT

Live weather data from Ararat, Victoria, Australia, 3377
Data uploaded from Cumulus every 5 minutes to Weather Underground.
This site then downloads the raw data for formatting and display.
Metric and imperial data can be displayed. Graphs and historical data available.
Includes Sun and Moon times and rain image live from BOM.

Check out Ararat Weather on Facebook, Twitter and Google +

Help support ongoing costs by checking out the ads





Follow @AraratWeather